Flight Track Log - Related Links

Times and Time Zones

All times are in EST time to prevent confusion due to time zone crossing. See the N589H flight status page for this flight to view local times or setup timezone preferences in your user account.

Time Position Orientation Groundspeed Altitude Reporting Facility
EST Latitude Longitude Course Direction KTS MPH feet Rate Location/Type
Tue 04:14:12 PM 44.8500 -63.5167 245° Southwest 130 150 700  Level Moncton Center
Tue 04:15:12 PM 44.8333 -63.5667 245° Southwest 210 242 1,700 1,550 Climbing Moncton Center
Tue 04:16:12 PM 44.8167 -63.6500 254° West 200 230 3,800 2,250 Climbing Moncton Center
Tue 04:17:12 PM 44.8000 -63.7333 254° West 200 230 6,200 2,450 Climbing Moncton Center
Tue 04:18:12 PM 44.7833 -63.7833 245° Southwest 170 196 8,700 2,250 Climbing Moncton Center
Tue 04:19:12 PM 44.7833 -63.8500 270° West 170 196 10,700 1,850 Climbing Moncton Center
Tue 04:20:12 PM 44.7667 -63.9333 254° West 180 207 12,400 1,750 Climbing Moncton Center
Tue 04:21:12 PM 44.7500 -64.0000 251° West 180 207 14,200 1,750 Climbing Moncton Center
Tue 04:22:12 PM 44.7500 -64.0667 270° West 180 207 15,900 1,750 Climbing Moncton Center
Tue 04:23:12 PM 44.7333 -64.1333 251° West 180 207 17,700 1,550 Climbing Moncton Center
Tue 04:24:12 PM 44.7167 -64.2167 254° West 180 207 19,000 1,350 Climbing Moncton Center
Tue 04:25:12 PM 44.7000 -64.2833 251° West 180 207 20,400 1,450 Climbing Moncton Center
Tue 04:26:12 PM 44.7000 -64.3500 270° West 180 207 21,900 1,450 Climbing Moncton Center
Tue 04:27:12 PM 44.6833 -64.4167 251° West 190 219 23,300 1,400 Climbing Moncton Center
Tue 04:28:12 PM 44.6667 -64.4833 251° West 180 207 24,700 1,350 Climbing Moncton Center
Tue 04:29:12 PM 44.6667 -64.5667 270° West 190 219 26,000 650 Climbing Moncton Center
Tue 04:30:12 PM 44.6500 -64.6333 251° West 200 230 26,000  Level Moncton Center
Tue 04:31:12 PM 44.6333 -64.7333 257° West 230 265 26,000  Level Moncton Center
Tue 04:32:12 PM 44.6167 -64.8167 254° West 240 276 26,000  Level Moncton Center
Tue 04:33:12 PM 44.6000 -64.9167 257° West 250 288 26,000  Level Moncton Center
Tue 04:34:12 PM 44.5833 -65.0000 254° West 260 299 26,000  Level Moncton Center
Tue 04:35:12 PM 44.5667 -65.1167 259° West 260 299 26,000  Level Moncton Center
Tue 04:36:12 PM 44.5500 -65.2167 257° West 260 299 26,000  Level Moncton Center
Tue 04:37:12 PM 44.5333 -65.3167 257° West 250 288 26,000  Level Moncton Center
Tue 04:38:12 PM 44.5167 -65.4000 254° West 260 299 26,000  Level Moncton Center
Tue 04:39:12 PM 44.5000 -65.5000 257° West 260 299 26,000  Level Moncton Center
Tue 04:40:12 PM 44.4833 -65.6000 257° West 260 299 26,000  Level Moncton Center
Tue 04:41:12 PM 44.4667 -65.6833 254° West 260 299 26,000  Level Moncton Center
Tue 04:42:12 PM 44.4500 -65.8000 259° West 260 299 26,000  Level Moncton Center
Tue 04:43:12 PM 44.4167 -65.9000 245° Southwest 260 299 26,000  Level Moncton Center
Tue 04:44:12 PM 44.4000 -65.9833 254° West 260 299 26,000  Level Moncton Center
Tue 04:45:12 PM 44.3667 -66.0833 245° Southwest 260 299 26,000  Level Moncton Center
Tue 04:46:12 PM 44.3500 -66.2000 259° West 260 299 26,000  Level Moncton Center
Tue 04:47:12 PM 44.3333 -66.2833 254° West 260 299 26,000  Level Moncton Center
Tue 04:48:12 PM 44.3167 -66.3833 257° West 260 299 26,000  Level Moncton Center
Tue 04:49:12 PM 44.3000 -66.5000 259° West 260 299 26,000  Level Moncton Center
Tue 04:50:12 PM 44.2667 -66.5667 235° Southwest 270 311 26,000  Level Moncton Center
Tue 04:51:12 PM 44.2167 -66.6667 235° Southwest 280 322 26,000  Level Moncton Center
Tue 04:52:12 PM 44.1833 -66.7500 241° Southwest 280 322 26,000  Level Moncton Center
Tue 04:53:12 PM 44.1333 -66.8500 235° Southwest 280 322 26,000  Level Moncton Center
Tue 04:54:12 PM 44.0667 -66.9167 216° Southwest 280 322 26,000  Level Moncton Center
Tue 04:55:12 PM 44.0167 -67.0000 230° Southwest 280 322 26,000  Level Moncton Center
Tue 04:56:12 PM 43.9833 -67.1000 245° Southwest 280 322 26,000  Level Moncton Center
Tue 04:57:12 PM 43.9333 -67.1667 224° Southwest 280 322 26,000  Level Moncton Center
Tue 04:58:12 PM 43.8833 -67.2500 230° Southwest 280 322 26,000  Level Moncton Center
Tue 04:58:50 PM 43.8739 -67.3028 256° West 278 320 26,000  Level Boston Center
Tue 04:59:51 PM 43.8256 -67.3875 232° Southwest 279 321 26,000  Level Boston Center
Tue 05:00:52 PM 43.7775 -67.4714 232° Southwest 279 321 26,000  Level Boston Center
Tue 05:01:54 PM 43.7294 -67.5553 232° Southwest 279 321 26,000  Level Boston Center
Tue 05:02:55 PM 43.6806 -67.6386 231° Southwest 278 320 26,000  Level Boston Center
Tue 05:03:56 PM 43.6322 -67.7225 231° Southwest 279 321 26,000  Level Boston Center
Tue 05:04:58 PM 43.5742 -67.8244 232° Southwest 281 323 26,000  Level Boston Center
Tue 05:05:59 PM 43.5250 -67.9078 231° Southwest 280 322 26,000  Level Boston Center
Tue 05:07:00 PM 43.4756 -67.9922 231° Southwest 282 325 26,000  Level Boston Center
Tue 05:08:01 PM 43.4258 -68.0756 231° Southwest 282 325 26,000  Level Boston Center
Tue 05:09:03 PM 43.3764 -68.1603 231° Southwest 283 326 26,000  Level Boston Center
Tue 05:10:04 PM 43.3269 -68.2447 231° Southwest 283 326 26,000  Level Boston Center
Tue 05:11:05 PM 43.2783 -68.3306 232° Southwest 284 327 26,000  Level Boston Center
Tue 05:12:07 PM 43.2286 -68.4156 231° Southwest 285 328 26,000  Level Boston Center
Tue 05:13:08 PM 43.1775 -68.4972 229° Southwest 284 327 26,000  Level Boston Center
Tue 05:14:10 PM 43.1172 -68.5972 230° Southwest 283 326 26,000  Level Boston Center
Tue 05:15:12 PM 43.0500 -68.7000 228° Southwest 290 334 26,000  Level Moncton Center
Tue 05:16:12 PM 43.0000 -68.7667 224° Southwest 290 334 26,000  Level Moncton Center
Tue 05:17:12 PM 42.9500 -68.8500 231° Southwest 290 334 26,000  Level Moncton Center
Tue 05:18:12 PM 42.8833 -68.9333 223° Southwest 290 334 26,000  Level Moncton Center
Tue 05:19:17 PM 42.8600 -69.0247 251° West 290 334 26,000  Level Boston Center
Tue 05:20:18 PM 42.8094 -69.1114 232° Southwest 292 336 26,000  Level Boston Center
Tue 05:21:12 PM 42.7500 -69.2000 228° Southwest 290 334 26,000  Level Moncton Center
Tue 05:22:12 PM 42.6833 -69.2833 223° Southwest 290 334 26,000  Level Moncton Center
Tue 05:23:12 PM 42.6333 -69.3667 231° Southwest 290 334 26,000  Level Moncton Center
Tue 05:24:12 PM 42.5833 -69.4500 231° Southwest 290 334 26,000  Level Moncton Center
Tue 05:25:12 PM 42.5333 -69.5167 225° Southwest 290 334 26,000  Level Moncton Center
Tue 05:26:27 PM 42.4925 -69.6233 243° Southwest 288 331 26,000  Level Boston Center
Tue 05:27:28 PM 42.4403 -69.7075 230° Southwest 292 336 26,000  Level Boston Center
Tue 05:28:30 PM 42.3786 -69.8083 230° Southwest 291 335 26,000  Level Boston Center
Tue 05:29:31 PM 42.3261 -69.8919 230° Southwest 291 335 26,000  Level Boston Center
Tue 05:30:33 PM 42.2733 -69.9747 229° Southwest 291 335 26,000  Level Boston Center
Tue 05:31:34 PM 42.2203 -70.0575 229° Southwest 291 335 26,000  Level Boston Center
Tue 05:32:36 PM 42.1664 -70.1389 228° Southwest 292 336 26,000  Level Boston Center
Tue 05:33:37 PM 42.1061 -70.2136 223° Southwest 296 341 26,000  Level Boston Center
Tue 05:34:39 PM 42.0528 -70.2981 230° Southwest 296 341 26,000  Level Boston Center
Tue 05:35:40 PM 42.0022 -70.3814 231° Southwest 292 336 26,000  Level Boston Center
Tue 05:36:42 PM 41.9492 -70.4650 230° Southwest 294 338 26,000  Level Boston Center
Tue 05:37:43 PM 41.8844 -70.5653 229° Southwest 293 337 26,000  Level Boston Center
Tue 05:38:45 PM 41.8322 -70.6489 230° Southwest 294 338 26,000  Level Boston Center
Tue 05:39:46 PM 41.7797 -70.7319 230° Southwest 294 338 26,000  Level Boston Center
Tue 05:40:47 PM 41.7261 -70.8158 229° Southwest 295 339 26,000  Level Boston Center
Tue 05:41:49 PM 41.6728 -70.8989 229° Southwest 296 341 26,000  Level Boston Center
Tue 05:42:50 PM 41.6203 -70.9828 230° Southwest 296 341 26,000  Level Boston Center
Tue 05:43:52 PM 41.5664 -71.0661 229° Southwest 296 341 26,000  Level Boston Center
Tue 05:44:53 PM 41.5128 -71.1494 229° Southwest 297 342 26,000  Level Boston Center
Tue 05:45:55 PM 41.4506 -71.2450 229° Southwest 297 342 26,000  Level Boston Center
Tue 05:46:56 PM 41.3981 -71.3283 230° Southwest 296 341 26,000  Level Boston Center
Tue 05:47:57 PM 41.3439 -71.4100 229° Southwest 295 339 26,000  Level Boston Center
Tue 05:48:59 PM 41.2900 -71.4917 229° Southwest 294 338 26,000  Level Boston Center
Tue 05:50:00 PM 41.2369 -71.5725 229° Southwest 293 337 26,000  Level Boston Center
Tue 05:51:01 PM 41.1836 -71.6536 229° Southwest 291 335 26,000  Level Boston Center
Tue 05:52:03 PM 41.1200 -71.7503 229° Southwest 291 335 26,000  Level Boston Center
Tue 05:53:04 PM 41.0664 -71.8319 229° Southwest 293 337 26,000 -393 Level Boston Center
Tue 05:54:05 PM 41.0125 -71.9111 228° Southwest 290 334 25,200 -829 Descending Boston Center
Tue 05:55:07 PM 40.9678 -71.9794 229° Southwest 290 334 24,300 -1,073 Descending Boston Center
Tue 05:56:08 PM 40.9028 -72.0772 229° Southwest 293 337 23,000 -1,131 Descending Boston Center
Tue 05:57:09 PM 40.8486 -72.1583 229° Southwest 293 337 22,000 -976 Descending Boston Center
Tue 05:58:11 PM 40.7947 -72.2381 228° Southwest 291 335 21,000 -976 Descending Boston Center
Tue 05:59:12 PM 40.7417 -72.3169 228° Southwest 288 331 20,000 -984 Descending Boston Center
Tue 06:00:13 PM 40.6925 -72.3917 229° Southwest 282 325 19,000 -976 Descending Boston Center
Tue 06:01:15 PM 40.6417 -72.4664 228° Southwest 274 315 18,000 -878 Descending Boston Center
Tue 06:02:16 PM 40.5914 -72.5397 228° Southwest 269 310 17,200 -885 Descending Boston Center
Tue 06:03:17 PM 40.5408 -72.6139 228° Southwest 270 311 16,200 -585 Descending Boston Center
Tue 06:04:19 PM 40.4817 -72.7019 229° Southwest 268 308 16,000 -98 Descending Boston Center
Tue 06:05:20 PM 40.4303 -72.7764 228° Southwest 270 311 16,000 -49 Level Boston Center
Tue 06:06:21 PM 40.3789 -72.8514 228° Southwest 274 315 15,900 -66 Descending Boston Center
Tue 06:06:51 PM 40.3575 -72.8872 232° Southwest 279 321 15,900  Level New York Center
Tue 06:07:50 PM 40.3039 -72.9647 228° Southwest 279 321 15,900  Level New York Center
Tue 06:08:51 PM 40.2569 -73.0283 226° Southwest 279 321 15,900  Level New York Center
Tue 06:09:51 PM 40.2053 -73.1108 231° Southwest 279 321 15,900 -300 Level New York Center
Tue 06:10:51 PM 40.1622 -73.1800 231° Southwest 274 315 15,300 -1,109 Descending New York Center
Tue 06:11:50 PM 40.1164 -73.2681 236° Southwest 266 306 13,700 -1,513 Descending New York Center
Tue 06:12:50 PM 40.0817 -73.3400 238° Southwest 261 300 12,300 -1,550 Descending New York Center
Tue 06:13:50 PM 40.0400 -73.4281 238° Southwest 267 307 10,600 -1,550 Descending New York Center
Tue 06:14:50 PM 40.0339 -73.5117 265° West 256 295 9,200 -3,300 Descending New York Center
Tue 06:15:50 PM 40.0294 -73.6092 267° West 251 289 4,000 -2,600 Descending New York Center
Tue 06:16:50 PM 40.0214 -73.6903 263° West 256 295 4,000  Level New York Center
Tue 06:17:50 PM 40.0147 -73.7847 265° West 250 288 4,000  Level New York Center
Tue 06:18:50 PM 40.0081 -73.8767 265° West 250 288 4,000  Level New York Center
Tue 06:19:50 PM 40.0139 -73.9689 275° West 250 288 4,000  Level New York Center
Tue 06:20:51 PM 40.0181 -74.0478 274° West 255 293 4,000  Level New York Center
Tue 06:21:50 PM 40.0239 -74.1375 275° West 255 293 4,000  Level New York Center
Tue 06:22:50 PM 40.0358 -74.2331 279° West 255 293 4,000  Level New York Center
Tue 06:23:50 PM 40.0478 -74.3175 280° West 248 285 4,000  Level New York Center
Tue 06:24:50 PM 40.0597 -74.4050 280° West 243 280 4,000  Level New York Center
Tue 06:25:50 PM 40.0697 -74.4842 279° West 243 280 4,000  Level New York Center
Tue 06:26:50 PM 40.0836 -74.5692 282° West 238 274 4,000  Level New York Center
Tue 06:27:50 PM 40.0956 -74.6539 280° West 238 274 4,000  Level New York Center
Tue 06:28:50 PM 40.1072 -74.7414 280° West 238 274 4,000  Level New York Center
Tue 06:29:50 PM 40.1192 -74.8208 281° West 238 274 4,000  Level New York Center
Tue 06:30:50 PM 40.1267 -74.9025 277° West 219 252 4,000  Level New York Center
Tue 06:31:50 PM 40.1250 -74.9461 267° West 168 193 4,000 -1,755 Level New York Center
Tue 06:32:36 PM 40.1167 -74.9667 242° Southwest 140 161 900 -4,043 Descending Philadelphia TRACON
Tue 06:34:00 PM 40.0819 -75.0106 197° South  Level Estimated
Tue 06:41:00 PM 40.0819 -75.0106 197° South  Level Estimated

Login

Don't have an account? Register now (free) for customized features, flight alerts, and more!